CheckWX is a tool to help pilots better visualize weather data.  It is not intended as a substitute for an official pre-flight weather briefing.

08:58:31 UTC

KSUS TAF
Spirit of St Louis Airport
St Louis, Missouri, USA
KSUS 190530Z 1906/2006 19012KT P6SM VCSH OVC080 FM191100 20014KT P6SM VCTS BKN060CB FM191600 23016G25KT P6SM SCT045 FM200100 29010KT P6SM FEW250

May-19@
06:00 UTC

May-19 @ 06:00 UTC

May-19@
11:00 UTC

May-19 @ 11:00 UTC

KSUS 190530Z 1906/2006 19012KT P6SM VCSH OVC080
Wind
  • 190° at 12 KTS
Cloud Levels
  • Overcast at 8,000' AGL

May-19@
11:00 UTC

May-19 @ 11:00 UTC

May-19@
16:00 UTC

May-19 @ 16:00 UTC

FM191100 20014KT P6SM VCTS BKN060CB

From

From Standard forecast or significant change

Wind
  • 200° at 14 KTS
Conditions
Area Thunderstorm
Cloud Levels
  • Broken at 6,000' AGL

May-19@
16:00 UTC

May-19 @ 16:00 UTC

May-20@
01:00 UTC

May-20 @ 01:00 UTC

FM191600 23016G25KT P6SM SCT045

From

From Standard forecast or significant change

Wind
  • 230° at 16 KTS
  • {Gusting to 25 KTS
Cloud Levels
  • Scattered at 4,500' AGL

May-20@
01:00 UTC

May-20 @ 01:00 UTC

May-20@
06:00 UTC

May-20 @ 06:00 UTC

FM200100 29010KT P6SM FEW250

From

From Standard forecast or significant change

Wind
  • 290° at 10 KTS
Cloud Levels
  • Few at 25,000' AGL